Huvudsida
METAR-TAF:

METAR-TAF

Flygplatser :

Phetchabun, Thailand

latitud: 16-40-33N, longitud: 101-11-42E, höjd: 137 m

Aktuellt väderrapport

Denna rapport gjordes för 1 timme och 56 minuter sedan, klockan 11:00 UTC
Vind 8 kt från väst/sydväst, varierande mellan sydväst och väst
Temperatur 38°C
Fuktighet 33%
Tryck 1002 hPa
Sikt: 8000 m

METAR: VTPB 241100Z 24008KT 220V280 8000 NSC 38/19 Q1002 NOSIG

Tid: 19:56 (12:56 UTC)

Väderprognos

Denna rapport gjordes för 1 timme och 56 minuter sedan, klockan 11:00 UTC
Prognos gäller från 24 kl. 12 UTC till 25 kl. 12 UTC
Vind 5 kt från syd/sydväst
Sikt: 8000 m
Få moln på en höjd av 3000 ft
Temporärt
från 24 kl. 12 UTC till 24 kl. 16 UTC
Få moln på en höjd av 2000 ft, Cumulonimbus.
Spridda moln på en höjd av 3000 ft
åska, lätt regn,

TAF: VTPB 241100Z 2412/2512 20005KT 8000 FEW030 TEMPO 2412/2416 -TSRA FEW020CB SCT030

Aktuella väderrapporter och prognoser från 4000 flygplatser (METAR- och TAF-rapporter).

De tillgängliga stationerna syns som gula och röda prickar på kartan.

För musen över prickarna för att se namnen på stationerna.

Klicka sedan för att få väderrapporter och prognoser.

För att ändra kartan: Klicka på de gröna knapparna med ett svart kors på för att zooma in; den gröna knappen med ett streck på för att zooma ut; eller på de gröna pilarna för angränsande kartor.


METAR-TAF: